sensor_id;sensor_type;location;lat;lon;timestamp;P1;durP1;ratioP1;P2;durP2;ratioP2
46437;SDS011;32137;48.728;9.142;2023-06-04T00:01:22;11.63;;;7.05;;
46437;SDS011;32137;48.728;9.142;2023-06-04T00:03:47;13.27;;;6.63;;
46437;SDS011;32137;48.728;9.142;2023-06-04T00:06:13;12.45;;;6.28;;
46437;SDS011;32137;48.728;9.142;2023-06-04T00:08:39;12.23;;;7.05;;
46437;SDS011;32137;48.728;9.142;2023-06-04T00:11:04;9.88;;;7.22;;
46437;SDS011;32137;48.728;9.142;2023-06-04T00:13:30;9.13;;;7.00;;
46437;SDS011;32137;48.728;9.142;2023-06-04T00:15:56;9.07;;;6.20;;
46437;SDS011;32137;48.728;9.142;2023-06-04T00:18:21;7.95;;;6.03;;
46437;SDS011;32137;48.728;9.142;2023-06-04T00:20:47;10.73;;;6.05;;
46437;SDS011;32137;48.728;9.142;2023-06-04T00:23:12;11.23;;;6.28;;
46437;SDS011;32137;48.728;9.142;2023-06-04T00:25:38;14.77;;;6.97;;
46437;SDS011;32137;48.728;9.142;2023-06-04T00:28:03;12.13;;;5.80;;
46437;SDS011;32137;48.728;9.142;2023-06-04T00:30:29;13.93;;;6.95;;
46437;SDS011;32137;48.728;9.142;2023-06-04T00:32:55;10.85;;;6.43;;
46437;SDS011;32137;48.728;9.142;2023-06-04T00:35:20;9.48;;;6.97;;
46437;SDS011;32137;48.728;9.142;2023-06-04T00:37:46;11.15;;;6.63;;
46437;SDS011;32137;48.728;9.142;2023-06-04T00:40:12;9.98;;;6.50;;
46437;SDS011;32137;48.728;9.142;2023-06-04T00:42:37;10.27;;;6.40;;
46437;SDS011;32137;48.728;9.142;2023-06-04T00:45:03;12.02;;;6.85;;
46437;SDS011;32137;48.728;9.142;2023-06-04T00:47:30;8.35;;;6.22;;
46437;SDS011;32137;48.728;9.142;2023-06-04T00:49:56;11.32;;;6.15;;
46437;SDS011;32137;48.728;9.142;2023-06-04T00:52:23;11.32;;;6.90;;
46437;SDS011;32137;48.728;9.142;2023-06-04T00:54:49;16.35;;;8.32;;
46437;SDS011;32137;48.728;9.142;2023-06-04T00:57:16;16.70;;;6.97;;
46437;SDS011;32137;48.728;9.142;2023-06-04T00:59:41;10.98;;;6.88;;
46437;SDS011;32137;48.728;9.142;2023-06-04T01:02:14;11.00;;;7.63;;
46437;SDS011;32137;48.728;9.142;2023-06-04T01:04:59;9.75;;;6.20;;
46437;SDS011;32137;48.728;9.142;2023-06-04T01:07:27;9.70;;;6.13;;
46437;SDS011;32137;48.728;9.142;2023-06-04T01:09:56;9.05;;;5.85;;
46437;SDS011;32137;48.728;9.142;2023-06-04T01:12:22;11.00;;;5.60;;
46437;SDS011;32137;48.728;9.142;2023-06-04T01:14:48;8.48;;;6.13;;
46437;SDS011;32137;48.728;9.142;2023-06-04T01:17:25;12.88;;;6.63;;
46437;SDS011;32137;48.728;9.142;2023-06-04T01:25:44;14.85;;;8.40;;
46437;SDS011;32137;48.728;9.142;2023-06-04T01:28:14;9.80;;;6.50;;
46437;SDS011;32137;48.728;9.142;2023-06-04T01:30:43;10.65;;;6.35;;
46437;SDS011;32137;48.728;9.142;2023-06-04T01:33:14;9.00;;;6.35;;
46437;SDS011;32137;48.728;9.142;2023-06-04T01:35:41;9.52;;;6.28;;
46437;SDS011;32137;48.728;9.142;2023-06-04T01:38:08;14.82;;;6.72;;
46437;SDS011;32137;48.728;9.142;2023-06-04T01:40:33;10.00;;;6.25;;
46437;SDS011;32137;48.728;9.142;2023-06-04T01:42:59;8.82;;;6.50;;
46437;SDS011;32137;48.728;9.142;2023-06-04T01:45:26;10.52;;;6.43;;
46437;SDS011;32137;48.728;9.142;2023-06-04T01:47:52;6.93;;;5.28;;
46437;SDS011;32137;48.728;9.142;2023-06-04T01:50:18;15.50;;;5.85;;
46437;SDS011;32137;48.728;9.142;2023-06-04T01:52:44;11.00;;;7.40;;
46437;SDS011;32137;48.728;9.142;2023-06-04T01:55:10;9.52;;;6.13;;
46437;SDS011;32137;48.728;9.142;2023-06-04T01:57:38;9.95;;;6.20;;
46437;SDS011;32137;48.728;9.142;2023-06-04T02:00:04;12.65;;;6.38;;
46437;SDS011;32137;48.728;9.142;2023-06-04T02:02:33;13.95;;;6.75;;
46437;SDS011;32137;48.728;9.142;2023-06-04T02:04:58;7.88;;;6.10;;
46437;SDS011;32137;48.728;9.142;2023-06-04T02:07:24;12.70;;;6.35;;
46437;SDS011;32137;48.728;9.142;2023-06-04T02:09:50;7.32;;;5.75;;
46437;SDS011;32137;48.728;9.142;2023-06-04T02:12:16;11.63;;;6.00;;
46437;SDS011;32137;48.728;9.142;2023-06-04T02:14:42;9.88;;;6.22;;
46437;SDS011;32137;48.728;9.142;2023-06-04T02:17:10;8.98;;;5.50;;
46437;SDS011;32137;48.728;9.142;2023-06-04T02:19:41;12.07;;;5.63;;
46437;SDS011;32137;48.728;9.142;2023-06-04T02:22:14;7.72;;;5.55;;
46437;SDS011;32137;48.728;9.142;2023-06-04T02:24:41;10.00;;;5.53;;
46437;SDS011;32137;48.728;9.142;2023-06-04T02:27:07;11.10;;;6.43;;
46437;SDS011;32137;48.728;9.142;2023-06-04T02:29:37;9.98;;;4.90;;
46437;SDS011;32137;48.728;9.142;2023-06-04T02:32:04;14.40;;;6.05;;
46437;SDS011;32137;48.728;9.142;2023-06-04T02:34:30;10.57;;;5.80;;
46437;SDS011;32137;48.728;9.142;2023-06-04T02:36:56;8.52;;;5.10;;
46437;SDS011;32137;48.728;9.142;2023-06-04T02:39:23;8.13;;;5.90;;
46437;SDS011;32137;48.728;9.142;2023-06-04T02:41:49;11.50;;;6.25;;
46437;SDS011;32137;48.728;9.142;2023-06-04T02:44:14;14.88;;;5.75;;
46437;SDS011;32137;48.728;9.142;2023-06-04T02:46:40;17.15;;;6.68;;
46437;SDS011;32137;48.728;9.142;2023-06-04T02:49:06;8.98;;;5.47;;
46437;SDS011;32137;48.728;9.142;2023-06-04T02:51:31;10.77;;;5.35;;
46437;SDS011;32137;48.728;9.142;2023-06-04T02:53:57;10.15;;;5.97;;
46437;SDS011;32137;48.728;9.142;2023-06-04T02:56:23;13.25;;;6.10;;
46437;SDS011;32137;48.728;9.142;2023-06-04T02:58:52;11.90;;;5.53;;
46437;SDS011;32137;48.728;9.142;2023-06-04T03:01:20;11.10;;;5.72;;
46437;SDS011;32137;48.728;9.142;2023-06-04T03:03:46;35.53;;;6.85;;
46437;SDS011;32137;48.728;9.142;2023-06-04T03:06:12;15.32;;;6.60;;
46437;SDS011;32137;48.728;9.142;2023-06-04T03:08:41;9.05;;;5.82;;
46437;SDS011;32137;48.728;9.142;2023-06-04T03:11:07;9.63;;;5.30;;
46437;SDS011;32137;48.728;9.142;2023-06-04T03:13:33;10.63;;;5.68;;
46437;SDS011;32137;48.728;9.142;2023-06-04T03:15:58;12.27;;;6.25;;
46437;SDS011;32137;48.728;9.142;2023-06-04T03:18:27;10.65;;;5.35;;
46437;SDS011;32137;48.728;9.142;2023-06-04T03:20:54;9.80;;;5.50;;
46437;SDS011;32137;48.728;9.142;2023-06-04T03:23:20;9.93;;;5.78;;
46437;SDS011;32137;48.728;9.142;2023-06-04T03:25:47;11.75;;;6.22;;
46437;SDS011;32137;48.728;9.142;2023-06-04T03:28:13;12.25;;;5.38;;
46437;SDS011;32137;48.728;9.142;2023-06-04T03:30:39;12.85;;;5.55;;
46437;SDS011;32137;48.728;9.142;2023-06-04T03:33:05;7.60;;;5.15;;
46437;SDS011;32137;48.728;9.142;2023-06-04T03:35:32;12.00;;;5.97;;
46437;SDS011;32137;48.728;9.142;2023-06-04T03:37:58;10.05;;;5.40;;
46437;SDS011;32137;48.728;9.142;2023-06-04T03:40:24;9.25;;;5.55;;
46437;SDS011;32137;48.728;9.142;2023-06-04T03:42:49;8.70;;;4.93;;
46437;SDS011;32137;48.728;9.142;2023-06-04T03:45:15;13.73;;;4.80;;
46437;SDS011;32137;48.728;9.142;2023-06-04T03:47:40;8.73;;;4.90;;
46437;SDS011;32137;48.728;9.142;2023-06-04T03:50:06;7.72;;;5.05;;
46437;SDS011;32137;48.728;9.142;2023-06-04T03:52:32;8.65;;;4.18;;
46437;SDS011;32137;48.728;9.142;2023-06-04T03:54:58;6.10;;;4.30;;
46437;SDS011;32137;48.728;9.142;2023-06-04T03:57:24;9.85;;;4.32;;
46437;SDS011;32137;48.728;9.142;2023-06-04T03:59:49;6.15;;;4.20;;
46437;SDS011;32137;48.728;9.142;2023-06-04T04:02:15;10.15;;;5.07;;
46437;SDS011;32137;48.728;9.142;2023-06-04T04:04:44;8.77;;;4.32;;
46437;SDS011;32137;48.728;9.142;2023-06-04T04:07:09;7.40;;;4.40;;
46437;SDS011;32137;48.728;9.142;2023-06-04T04:09:35;8.68;;;4.72;;
46437;SDS011;32137;48.728;9.142;2023-06-04T04:12:02;8.27;;;4.05;;
46437;SDS011;32137;48.728;9.142;2023-06-04T04:14:28;6.65;;;4.13;;
46437;SDS011;32137;48.728;9.142;2023-06-04T04:16:53;9.45;;;4.10;;
46437;SDS011;32137;48.728;9.142;2023-06-04T04:19:19;8.23;;;4.28;;
46437;SDS011;32137;48.728;9.142;2023-06-04T04:21:45;6.43;;;4.30;;
46437;SDS011;32137;48.728;9.142;2023-06-04T04:24:23;8.48;;;4.57;;
46437;SDS011;32137;48.728;9.142;2023-06-04T04:26:49;6.68;;;4.30;;
46437;SDS011;32137;48.728;9.142;2023-06-04T04:29:17;8.43;;;3.65;;
46437;SDS011;32137;48.728;9.142;2023-06-04T04:31:47;7.35;;;4.18;;
46437;SDS011;32137;48.728;9.142;2023-06-04T04:34:16;5.40;;;3.90;;
46437;SDS011;32137;48.728;9.142;2023-06-04T04:36:42;12.85;;;4.10;;
46437;SDS011;32137;48.728;9.142;2023-06-04T04:39:09;6.35;;;4.10;;
46437;SDS011;32137;48.728;9.142;2023-06-04T04:41:35;5.10;;;3.45;;
46437;SDS011;32137;48.728;9.142;2023-06-04T04:44:04;7.15;;;3.47;;
46437;SDS011;32137;48.728;9.142;2023-06-04T04:46:31;11.27;;;4.25;;
46437;SDS011;32137;48.728;9.142;2023-06-04T04:48:56;5.90;;;3.67;;
46437;SDS011;32137;48.728;9.142;2023-06-04T04:51:22;10.13;;;5.00;;
46437;SDS011;32137;48.728;9.142;2023-06-04T04:53:47;6.75;;;3.85;;
46437;SDS011;32137;48.728;9.142;2023-06-04T04:56:13;5.35;;;3.03;;
46437;SDS011;32137;48.728;9.142;2023-06-04T04:58:39;6.22;;;3.83;;
46437;SDS011;32137;48.728;9.142;2023-06-04T05:01:05;9.52;;;3.60;;
46437;SDS011;32137;48.728;9.142;2023-06-04T05:03:31;6.05;;;4.00;;
46437;SDS011;32137;48.728;9.142;2023-06-04T05:05:56;5.68;;;3.28;;
46437;SDS011;32137;48.728;9.142;2023-06-04T05:08:22;4.10;;;3.17;;
46437;SDS011;32137;48.728;9.142;2023-06-04T05:10:47;9.20;;;3.63;;
46437;SDS011;32137;48.728;9.142;2023-06-04T05:13:13;6.88;;;3.42;;
46437;SDS011;32137;48.728;9.142;2023-06-04T05:15:41;5.68;;;3.55;;
46437;SDS011;32137;48.728;9.142;2023-06-04T05:18:07;5.72;;;3.08;;
46437;SDS011;32137;48.728;9.142;2023-06-04T05:20:33;9.50;;;3.72;;
46437;SDS011;32137;48.728;9.142;2023-06-04T05:23:00;8.60;;;4.05;;
46437;SDS011;32137;48.728;9.142;2023-06-04T05:25:27;9.95;;;3.88;;
46437;SDS011;32137;48.728;9.142;2023-06-04T05:27:53;10.48;;;3.13;;
46437;SDS011;32137;48.728;9.142;2023-06-04T05:30:21;4.20;;;3.05;;
46437;SDS011;32137;48.728;9.142;2023-06-04T05:32:46;5.15;;;3.08;;
46437;SDS011;32137;48.728;9.142;2023-06-04T05:35:12;4.25;;;2.85;;
46437;SDS011;32137;48.728;9.142;2023-06-04T05:37:38;5.93;;;3.38;;
46437;SDS011;32137;48.728;9.142;2023-06-04T05:40:05;6.03;;;3.22;;
46437;SDS011;32137;48.728;9.142;2023-06-04T05:42:32;5.32;;;3.30;;
46437;SDS011;32137;48.728;9.142;2023-06-04T05:44:58;5.95;;;3.45;;
46437;SDS011;32137;48.728;9.142;2023-06-04T05:47:23;7.40;;;3.25;;
46437;SDS011;32137;48.728;9.142;2023-06-04T05:49:49;6.25;;;3.30;;
46437;SDS011;32137;48.728;9.142;2023-06-04T05:52:15;7.30;;;3.40;;
46437;SDS011;32137;48.728;9.142;2023-06-04T05:54:40;9.85;;;2.95;;
46437;SDS011;32137;48.728;9.142;2023-06-04T05:57:06;9.02;;;3.47;;
46437;SDS011;32137;48.728;9.142;2023-06-04T05:59:31;6.20;;;2.92;;
46437;SDS011;32137;48.728;9.142;2023-06-04T06:01:57;5.07;;;2.40;;
46437;SDS011;32137;48.728;9.142;2023-06-04T06:04:22;4.45;;;3.22;;
46437;SDS011;32137;48.728;9.142;2023-06-04T06:06:48;5.70;;;2.95;;
46437;SDS011;32137;48.728;9.142;2023-06-04T06:09:14;5.50;;;2.90;;
46437;SDS011;32137;48.728;9.142;2023-06-04T06:11:41;8.82;;;3.58;;
46437;SDS011;32137;48.728;9.142;2023-06-04T06:14:07;10.07;;;3.33;;
46437;SDS011;32137;48.728;9.142;2023-06-04T06:16:32;6.88;;;2.70;;
46437;SDS011;32137;48.728;9.142;2023-06-04T06:18:59;6.47;;;3.00;;
46437;SDS011;32137;48.728;9.142;2023-06-04T06:21:25;7.00;;;4.55;;
46437;SDS011;32137;48.728;9.142;2023-06-04T06:23:51;13.43;;;5.07;;
46437;SDS011;32137;48.728;9.142;2023-06-04T06:26:16;6.55;;;3.20;;
46437;SDS011;32137;48.728;9.142;2023-06-04T06:28:43;7.47;;;3.17;;
46437;SDS011;32137;48.728;9.142;2023-06-04T06:31:09;4.93;;;2.90;;
46437;SDS011;32137;48.728;9.142;2023-06-04T06:33:34;3.35;;;2.40;;
46437;SDS011;32137;48.728;9.142;2023-06-04T06:36:00;5.93;;;3.70;;
46437;SDS011;32137;48.728;9.142;2023-06-04T06:38:26;5.68;;;3.13;;
46437;SDS011;32137;48.728;9.142;2023-06-04T06:40:52;6.38;;;3.20;;
46437;SDS011;32137;48.728;9.142;2023-06-04T06:43:17;5.63;;;3.03;;
46437;SDS011;32137;48.728;9.142;2023-06-04T06:45:43;6.65;;;3.00;;
46437;SDS011;32137;48.728;9.142;2023-06-04T06:48:09;4.38;;;3.00;;
46437;SDS011;32137;48.728;9.142;2023-06-04T06:50:34;10.40;;;2.75;;
46437;SDS011;32137;48.728;9.142;2023-06-04T06:53:03;12.32;;;2.78;;
46437;SDS011;32137;48.728;9.142;2023-06-04T06:55:28;4.00;;;2.65;;
46437;SDS011;32137;48.728;9.142;2023-06-04T06:57:54;4.60;;;2.67;;
46437;SDS011;32137;48.728;9.142;2023-06-04T07:00:20;4.82;;;2.95;;
46437;SDS011;32137;48.728;9.142;2023-06-04T07:02:45;7.20;;;3.22;;
46437;SDS011;32137;48.728;9.142;2023-06-04T07:05:11;5.60;;;2.83;;
46437;SDS011;32137;48.728;9.142;2023-06-04T07:07:39;4.80;;;2.75;;
46437;SDS011;32137;48.728;9.142;2023-06-04T07:10:05;6.85;;;2.90;;
46437;SDS011;32137;48.728;9.142;2023-06-04T07:12:30;5.70;;;2.70;;
46437;SDS011;32137;48.728;9.142;2023-06-04T07:14:56;3.53;;;2.45;;
46437;SDS011;32137;48.728;9.142;2023-06-04T07:17:22;6.15;;;3.33;;
46437;SDS011;32137;48.728;9.142;2023-06-04T07:19:47;10.00;;;5.20;;
46437;SDS011;32137;48.728;9.142;2023-06-04T07:22:13;6.50;;;4.00;;
46437;SDS011;32137;48.728;9.142;2023-06-04T07:24:40;9.52;;;3.42;;
46437;SDS011;32137;48.728;9.142;2023-06-04T07:27:10;5.00;;;2.80;;
46437;SDS011;32137;48.728;9.142;2023-06-04T07:29:37;6.20;;;3.47;;
46437;SDS011;32137;48.728;9.142;2023-06-04T07:32:02;5.47;;;2.80;;
46437;SDS011;32137;48.728;9.142;2023-06-04T07:34:28;5.20;;;2.67;;
46437;SDS011;32137;48.728;9.142;2023-06-04T07:36:54;6.68;;;2.92;;
46437;SDS011;32137;48.728;9.142;2023-06-04T07:39:19;2.60;;;2.10;;
46437;SDS011;32137;48.728;9.142;2023-06-04T07:41:45;4.03;;;2.78;;
46437;SDS011;32137;48.728;9.142;2023-06-04T07:44:10;4.97;;;2.40;;
46437;SDS011;32137;48.728;9.142;2023-06-04T07:46:36;6.18;;;2.72;;
46437;SDS011;32137;48.728;9.142;2023-06-04T07:49:01;4.65;;;3.03;;
46437;SDS011;32137;48.728;9.142;2023-06-04T07:51:27;9.40;;;3.17;;
46437;SDS011;32137;48.728;9.142;2023-06-04T07:53:52;3.08;;;2.28;;
46437;SDS011;32137;48.728;9.142;2023-06-04T07:56:18;7.05;;;3.70;;
46437;SDS011;32137;48.728;9.142;2023-06-04T07:58:44;3.70;;;2.15;;
46437;SDS011;32137;48.728;9.142;2023-06-04T08:01:10;5.13;;;3.00;;
46437;SDS011;32137;48.728;9.142;2023-06-04T08:03:35;9.40;;;3.15;;
46437;SDS011;32137;48.728;9.142;2023-06-04T08:06:01;4.60;;;2.65;;
46437;SDS011;32137;48.728;9.142;2023-06-04T08:08:27;4.30;;;2.38;;
46437;SDS011;32137;48.728;9.142;2023-06-04T08:10:52;5.18;;;2.78;;
46437;SDS011;32137;48.728;9.142;2023-06-04T08:13:18;4.47;;;2.58;;
46437;SDS011;32137;48.728;9.142;2023-06-04T08:15:43;4.50;;;2.63;;
46437;SDS011;32137;48.728;9.142;2023-06-04T08:18:09;5.25;;;2.63;;
46437;SDS011;32137;48.728;9.142;2023-06-04T08:20:35;8.52;;;3.15;;
46437;SDS011;32137;48.728;9.142;2023-06-04T08:23:00;7.95;;;2.45;;
46437;SDS011;32137;48.728;9.142;2023-06-04T08:25:26;5.57;;;2.35;;
46437;SDS011;32137;48.728;9.142;2023-06-04T08:27:52;6.55;;;3.28;;
46437;SDS011;32137;48.728;9.142;2023-06-04T08:30:18;15.55;;;2.90;;
46437;SDS011;32137;48.728;9.142;2023-06-04T08:32:43;8.98;;;2.67;;
46437;SDS011;32137;48.728;9.142;2023-06-04T08:35:09;6.78;;;2.80;;
46437;SDS011;32137;48.728;9.142;2023-06-04T08:37:35;4.35;;;2.40;;
46437;SDS011;32137;48.728;9.142;2023-06-04T08:40:01;6.28;;;2.47;;
46437;SDS011;32137;48.728;9.142;2023-06-04T08:44:56;3.58;;;2.40;;
46437;SDS011;32137;48.728;9.142;2023-06-04T08:47:24;4.38;;;2.53;;
46437;SDS011;32137;48.728;9.142;2023-06-04T08:49:51;6.05;;;3.45;;
46437;SDS011;32137;48.728;9.142;2023-06-04T08:52:17;4.35;;;2.75;;
46437;SDS011;32137;48.728;9.142;2023-06-04T08:54:47;5.05;;;3.13;;
46437;SDS011;32137;48.728;9.142;2023-06-04T08:57:18;4.68;;;2.58;;
46437;SDS011;32137;48.728;9.142;2023-06-04T08:59:45;5.32;;;2.20;;
46437;SDS011;32137;48.728;9.142;2023-06-04T09:02:12;3.30;;;2.08;;
46437;SDS011;32137;48.728;9.142;2023-06-04T09:04:39;3.83;;;3.00;;
46437;SDS011;32137;48.728;9.142;2023-06-04T09:07:05;5.22;;;2.95;;
46437;SDS011;32137;48.728;9.142;2023-06-04T09:09:34;4.65;;;3.13;;
46437;SDS011;32137;48.728;9.142;2023-06-04T09:12:03;8.38;;;2.95;;
46437;SDS011;32137;48.728;9.142;2023-06-04T09:14:31;6.15;;;3.00;;
46437;SDS011;32137;48.728;9.142;2023-06-04T09:16:56;5.40;;;2.95;;
46437;SDS011;32137;48.728;9.142;2023-06-04T09:19:23;8.23;;;3.10;;
46437;SDS011;32137;48.728;9.142;2023-06-04T09:21:56;5.45;;;3.13;;
46437;SDS011;32137;48.728;9.142;2023-06-04T09:24:23;13.93;;;4.60;;
46437;SDS011;32137;48.728;9.142;2023-06-04T09:26:51;6.53;;;3.28;;
46437;SDS011;32137;48.728;9.142;2023-06-04T09:29:17;4.35;;;2.70;;
46437;SDS011;32137;48.728;9.142;2023-06-04T09:31:46;7.53;;;3.63;;
46437;SDS011;32137;48.728;9.142;2023-06-04T09:34:26;7.53;;;3.13;;
46437;SDS011;32137;48.728;9.142;2023-06-04T09:36:56;5.85;;;2.88;;
46437;SDS011;32137;48.728;9.142;2023-06-04T09:39:22;6.80;;;3.08;;
46437;SDS011;32137;48.728;9.142;2023-06-04T09:41:58;3.88;;;2.38;;
46437;SDS011;32137;48.728;9.142;2023-06-04T09:44:28;7.00;;;3.15;;
46437;SDS011;32137;48.728;9.142;2023-06-04T09:46:57;6.53;;;2.80;;
46437;SDS011;32137;48.728;9.142;2023-06-04T09:49:23;6.63;;;3.03;;
46437;SDS011;32137;48.728;9.142;2023-06-04T09:51:49;5.40;;;2.97;;
46437;SDS011;32137;48.728;9.142;2023-06-04T09:54:15;4.70;;;2.85;;
46437;SDS011;32137;48.728;9.142;2023-06-04T09:56:41;7.45;;;3.28;;
46437;SDS011;32137;48.728;9.142;2023-06-04T09:59:08;4.85;;;2.95;;
46437;SDS011;32137;48.728;9.142;2023-06-04T10:01:34;5.70;;;3.42;;
46437;SDS011;32137;48.728;9.142;2023-06-04T10:04:03;6.97;;;3.20;;
46437;SDS011;32137;48.728;9.142;2023-06-04T10:06:33;8.10;;;3.28;;
46437;SDS011;32137;48.728;9.142;2023-06-04T10:09:03;6.40;;;3.17;;
46437;SDS011;32137;48.728;9.142;2023-06-04T10:11:37;4.93;;;3.25;;
46437;SDS011;32137;48.728;9.142;2023-06-04T10:14:10;7.40;;;3.17;;
46437;SDS011;32137;48.728;9.142;2023-06-04T10:16:47;8.73;;;3.88;;
46437;SDS011;32137;48.728;9.142;2023-06-04T10:19:15;7.78;;;3.05;;
46437;SDS011;32137;48.728;9.142;2023-06-04T10:21:42;7.28;;;4.00;;
46437;SDS011;32137;48.728;9.142;2023-06-04T10:24:08;5.72;;;4.00;;
46437;SDS011;32137;48.728;9.142;2023-06-04T10:26:34;7.50;;;3.88;;
46437;SDS011;32137;48.728;9.142;2023-06-04T10:29:00;8.10;;;3.80;;
46437;SDS011;32137;48.728;9.142;2023-06-04T10:31:27;9.82;;;3.72;;
46437;SDS011;32137;48.728;9.142;2023-06-04T10:33:53;8.88;;;3.53;;
46437;SDS011;32137;48.728;9.142;2023-06-04T10:36:22;10.68;;;3.70;;
46437;SDS011;32137;48.728;9.142;2023-06-04T10:38:49;7.57;;;3.70;;
46437;SDS011;32137;48.728;9.142;2023-06-04T10:41:17;7.72;;;3.92;;
46437;SDS011;32137;48.728;9.142;2023-06-04T10:43:47;6.57;;;3.63;;
46437;SDS011;32137;48.728;9.142;2023-06-04T10:46:15;5.53;;;3.35;;
46437;SDS011;32137;48.728;9.142;2023-06-04T10:48:48;42.25;;;6.43;;
46437;SDS011;32137;48.728;9.142;2023-06-04T10:51:15;6.97;;;4.05;;
46437;SDS011;32137;48.728;9.142;2023-06-04T10:53:41;6.85;;;3.85;;
46437;SDS011;32137;48.728;9.142;2023-06-04T10:56:07;9.23;;;3.95;;
46437;SDS011;32137;48.728;9.142;2023-06-04T10:58:33;6.80;;;3.63;;
46437;SDS011;32137;48.728;9.142;2023-06-04T11:00:59;9.50;;;3.63;;
46437;SDS011;32137;48.728;9.142;2023-06-04T11:03:34;4.28;;;3.13;;
46437;SDS011;32137;48.728;9.142;2023-06-04T11:06:13;6.60;;;3.60;;
46437;SDS011;32137;48.728;9.142;2023-06-04T11:08:41;6.38;;;4.88;;
46437;SDS011;32137;48.728;9.142;2023-06-04T11:11:11;6.50;;;4.47;;
46437;SDS011;32137;48.728;9.142;2023-06-04T11:13:38;8.88;;;4.20;;
46437;SDS011;32137;48.728;9.142;2023-06-04T11:16:13;6.55;;;3.78;;
46437;SDS011;32137;48.728;9.142;2023-06-04T11:18:41;7.70;;;3.63;;
46437;SDS011;32137;48.728;9.142;2023-06-04T11:21:06;9.95;;;3.78;;
46437;SDS011;32137;48.728;9.142;2023-06-04T11:23:33;8.95;;;4.40;;
46437;SDS011;32137;48.728;9.142;2023-06-04T11:25:58;11.25;;;4.63;;
46437;SDS011;32137;48.728;9.142;2023-06-04T11:28:25;7.95;;;3.13;;
46437;SDS011;32137;48.728;9.142;2023-06-04T11:30:59;8.70;;;3.25;;
46437;SDS011;32137;48.728;9.142;2023-06-04T11:33:41;6.50;;;3.78;;
46437;SDS011;32137;48.728;9.142;2023-06-04T11:36:10;6.20;;;3.38;;
46437;SDS011;32137;48.728;9.142;2023-06-04T11:38:53;7.32;;;4.40;;
46437;SDS011;32137;48.728;9.142;2023-06-04T11:41:23;6.53;;;3.70;;
46437;SDS011;32137;48.728;9.142;2023-06-04T11:43:52;4.30;;;3.28;;
46437;SDS011;32137;48.728;9.142;2023-06-04T11:46:18;7.30;;;3.63;;
46437;SDS011;32137;48.728;9.142;2023-06-04T11:48:45;14.48;;;4.22;;
46437;SDS011;32137;48.728;9.142;2023-06-04T11:51:11;8.02;;;3.65;;
46437;SDS011;32137;48.728;9.142;2023-06-04T11:53:37;7.95;;;4.95;;
46437;SDS011;32137;48.728;9.142;2023-06-04T11:56:04;9.20;;;4.93;;
46437;SDS011;32137;48.728;9.142;2023-06-04T11:58:30;6.35;;;3.35;;
46437;SDS011;32137;48.728;9.142;2023-06-04T12:00:57;6.55;;;4.05;;
46437;SDS011;32137;48.728;9.142;2023-06-04T12:03:31;5.80;;;3.33;;
46437;SDS011;32137;48.728;9.142;2023-06-04T12:08:51;6.60;;;3.72;;
46437;SDS011;32137;48.728;9.142;2023-06-04T12:13:59;5.75;;;3.60;;
46437;SDS011;32137;48.728;9.142;2023-06-04T12:16:26;6.95;;;3.70;;
46437;SDS011;32137;48.728;9.142;2023-06-04T12:18:52;8.05;;;4.38;;
46437;SDS011;32137;48.728;9.142;2023-06-04T12:21:28;3.85;;;3.22;;
46437;SDS011;32137;48.728;9.142;2023-06-04T12:24:05;5.63;;;3.72;;
46437;SDS011;32137;48.728;9.142;2023-06-04T12:26:32;5.47;;;3.75;;
46437;SDS011;32137;48.728;9.142;2023-06-04T12:29:06;6.95;;;3.60;;
46437;SDS011;32137;48.728;9.142;2023-06-04T12:31:36;9.77;;;3.33;;
46437;SDS011;32137;48.728;9.142;2023-06-04T12:34:10;8.38;;;3.15;;
46437;SDS011;32137;48.728;9.142;2023-06-04T12:36:39;4.25;;;2.95;;
46437;SDS011;32137;48.728;9.142;2023-06-04T12:39:05;6.32;;;3.00;;
46437;SDS011;32137;48.728;9.142;2023-06-04T12:41:32;6.05;;;3.45;;
46437;SDS011;32137;48.728;9.142;2023-06-04T12:43:58;4.53;;;3.55;;
46437;SDS011;32137;48.728;9.142;2023-06-04T12:46:25;5.55;;;4.10;;
46437;SDS011;32137;48.728;9.142;2023-06-04T12:48:51;9.38;;;3.80;;
46437;SDS011;32137;48.728;9.142;2023-06-04T12:51:17;4.57;;;3.47;;
46437;SDS011;32137;48.728;9.142;2023-06-04T12:53:43;7.65;;;4.13;;
46437;SDS011;32137;48.728;9.142;2023-06-04T12:56:09;5.57;;;3.38;;
46437;SDS011;32137;48.728;9.142;2023-06-04T12:58:36;4.63;;;4.05;;
46437;SDS011;32137;48.728;9.142;2023-06-04T13:01:02;5.68;;;3.50;;
46437;SDS011;32137;48.728;9.142;2023-06-04T13:03:29;4.97;;;3.30;;
46437;SDS011;32137;48.728;9.142;2023-06-04T13:05:56;9.43;;;3.53;;
46437;SDS011;32137;48.728;9.142;2023-06-04T13:08:22;5.35;;;3.58;;
46437;SDS011;32137;48.728;9.142;2023-06-04T13:10:49;7.28;;;3.65;;
46437;SDS011;32137;48.728;9.142;2023-06-04T13:13:16;4.82;;;3.30;;
46437;SDS011;32137;48.728;9.142;2023-06-04T13:15:42;6.25;;;3.17;;
46437;SDS011;32137;48.728;9.142;2023-06-04T13:18:08;6.57;;;3.03;;
46437;SDS011;32137;48.728;9.142;2023-06-04T13:20:35;4.40;;;3.45;;
46437;SDS011;32137;48.728;9.142;2023-06-04T13:23:01;5.18;;;2.95;;
46437;SDS011;32137;48.728;9.142;2023-06-04T13:25:27;3.83;;;3.40;;
46437;SDS011;32137;48.728;9.142;2023-06-04T13:27:53;5.20;;;3.58;;
46437;SDS011;32137;48.728;9.142;2023-06-04T13:30:19;8.88;;;3.60;;
46437;SDS011;32137;48.728;9.142;2023-06-04T13:32:46;4.70;;;3.25;;
46437;SDS011;32137;48.728;9.142;2023-06-04T13:35:11;7.20;;;3.42;;
46437;SDS011;32137;48.728;9.142;2023-06-04T13:37:37;5.20;;;3.70;;
46437;SDS011;32137;48.728;9.142;2023-06-04T13:40:03;5.43;;;3.50;;
46437;SDS011;32137;48.728;9.142;2023-06-04T13:42:29;4.93;;;3.35;;
46437;SDS011;32137;48.728;9.142;2023-06-04T13:44:55;4.07;;;2.97;;
46437;SDS011;32137;48.728;9.142;2023-06-04T13:47:20;5.20;;;3.85;;
46437;SDS011;32137;48.728;9.142;2023-06-04T13:49:46;6.00;;;3.47;;
46437;SDS011;32137;48.728;9.142;2023-06-04T13:52:12;6.15;;;3.97;;
46437;SDS011;32137;48.728;9.142;2023-06-04T13:54:38;5.43;;;3.75;;
46437;SDS011;32137;48.728;9.142;2023-06-04T13:57:03;5.78;;;3.45;;
46437;SDS011;32137;48.728;9.142;2023-06-04T13:59:29;5.55;;;3.63;;
46437;SDS011;32137;48.728;9.142;2023-06-04T14:01:56;5.13;;;3.88;;
46437;SDS011;32137;48.728;9.142;2023-06-04T14:04:21;4.38;;;3.38;;
46437;SDS011;32137;48.728;9.142;2023-06-04T14:06:47;5.07;;;3.50;;
46437;SDS011;32137;48.728;9.142;2023-06-04T14:09:13;3.95;;;3.55;;
46437;SDS011;32137;48.728;9.142;2023-06-04T14:11:38;4.78;;;3.95;;
46437;SDS011;32137;48.728;9.142;2023-06-04T14:14:05;7.90;;;3.80;;
46437;SDS011;32137;48.728;9.142;2023-06-04T14:16:31;4.72;;;3.10;;
46437;SDS011;32137;48.728;9.142;2023-06-04T14:18:56;4.32;;;3.20;;
46437;SDS011;32137;48.728;9.142;2023-06-04T14:21:22;5.70;;;3.20;;
46437;SDS011;32137;48.728;9.142;2023-06-04T14:23:48;6.10;;;3.67;;
46437;SDS011;32137;48.728;9.142;2023-06-04T14:26:15;4.53;;;3.25;;
46437;SDS011;32137;48.728;9.142;2023-06-04T14:28:42;6.18;;;4.03;;
46437;SDS011;32137;48.728;9.142;2023-06-04T14:31:08;7.80;;;4.15;;
46437;SDS011;32137;48.728;9.142;2023-06-04T14:33:34;4.75;;;3.20;;
46437;SDS011;32137;48.728;9.142;2023-06-04T14:36:02;5.55;;;3.83;;
46437;SDS011;32137;48.728;9.142;2023-06-04T14:38:30;4.40;;;3.50;;
46437;SDS011;32137;48.728;9.142;2023-06-04T14:40:55;7.72;;;3.45;;
46437;SDS011;32137;48.728;9.142;2023-06-04T14:43:21;6.88;;;3.80;;
46437;SDS011;32137;48.728;9.142;2023-06-04T14:45:47;8.93;;;3.78;;
46437;SDS011;32137;48.728;9.142;2023-06-04T14:48:13;5.70;;;3.30;;
46437;SDS011;32137;48.728;9.142;2023-06-04T14:50:39;7.32;;;3.55;;
46437;SDS011;32137;48.728;9.142;2023-06-04T14:53:04;4.43;;;3.30;;
46437;SDS011;32137;48.728;9.142;2023-06-04T14:55:32;3.42;;;3.03;;
46437;SDS011;32137;48.728;9.142;2023-06-04T14:57:58;8.25;;;3.22;;